sensor_id;sensor_type;location;lat;lon;timestamp;P1;durP1;ratioP1;P2;durP2;ratioP2
15342;SDS011;7771;48.478;8.936;2023-06-05T00:00:28;3.43;;;2.47;;
15342;SDS011;7771;48.478;8.936;2023-06-05T00:02:55;4.47;;;2.73;;
15342;SDS011;7771;48.478;8.936;2023-06-05T00:05:23;3.23;;;2.50;;
15342;SDS011;7771;48.478;8.936;2023-06-05T00:07:51;3.47;;;2.53;;
15342;SDS011;7771;48.478;8.936;2023-06-05T00:10:19;4.43;;;2.23;;
15342;SDS011;7771;48.478;8.936;2023-06-05T00:12:46;3.30;;;2.90;;
15342;SDS011;7771;48.478;8.936;2023-06-05T00:15:13;3.83;;;2.53;;
15342;SDS011;7771;48.478;8.936;2023-06-05T00:17:40;2.90;;;2.60;;
15342;SDS011;7771;48.478;8.936;2023-06-05T00:20:07;3.93;;;3.10;;
15342;SDS011;7771;48.478;8.936;2023-06-05T00:22:36;2.70;;;2.50;;
15342;SDS011;7771;48.478;8.936;2023-06-05T00:25:02;4.07;;;2.67;;
15342;SDS011;7771;48.478;8.936;2023-06-05T00:27:30;5.03;;;2.73;;
15342;SDS011;7771;48.478;8.936;2023-06-05T00:29:56;3.93;;;2.83;;
15342;SDS011;7771;48.478;8.936;2023-06-05T00:32:24;2.93;;;2.40;;
15342;SDS011;7771;48.478;8.936;2023-06-05T00:34:52;3.47;;;3.03;;
15342;SDS011;7771;48.478;8.936;2023-06-05T00:37:19;5.63;;;3.23;;
15342;SDS011;7771;48.478;8.936;2023-06-05T00:39:45;5.57;;;3.20;;
15342;SDS011;7771;48.478;8.936;2023-06-05T00:42:13;4.97;;;2.90;;
15342;SDS011;7771;48.478;8.936;2023-06-05T00:44:40;3.80;;;3.40;;
15342;SDS011;7771;48.478;8.936;2023-06-05T00:49:47;5.23;;;3.10;;
15342;SDS011;7771;48.478;8.936;2023-06-05T00:52:15;4.67;;;3.30;;
15342;SDS011;7771;48.478;8.936;2023-06-05T00:54:41;5.37;;;3.00;;
15342;SDS011;7771;48.478;8.936;2023-06-05T00:57:09;4.03;;;2.73;;
15342;SDS011;7771;48.478;8.936;2023-06-05T00:59:36;4.10;;;3.07;;
15342;SDS011;7771;48.478;8.936;2023-06-05T01:02:03;3.60;;;2.63;;
15342;SDS011;7771;48.478;8.936;2023-06-05T01:04:31;4.17;;;2.80;;
15342;SDS011;7771;48.478;8.936;2023-06-05T01:06:59;3.90;;;2.70;;
15342;SDS011;7771;48.478;8.936;2023-06-05T01:09:26;3.27;;;2.77;;
15342;SDS011;7771;48.478;8.936;2023-06-05T01:11:58;5.70;;;2.90;;
15342;SDS011;7771;48.478;8.936;2023-06-05T01:14:27;3.47;;;2.63;;
15342;SDS011;7771;48.478;8.936;2023-06-05T01:16:54;5.17;;;2.80;;
15342;SDS011;7771;48.478;8.936;2023-06-05T01:19:20;4.33;;;3.00;;
15342;SDS011;7771;48.478;8.936;2023-06-05T01:21:47;4.13;;;3.13;;
15342;SDS011;7771;48.478;8.936;2023-06-05T01:24:14;3.50;;;2.80;;
15342;SDS011;7771;48.478;8.936;2023-06-05T01:26:49;5.83;;;3.17;;
15342;SDS011;7771;48.478;8.936;2023-06-05T01:29:10;3.17;;;2.57;;
15342;SDS011;7771;48.478;8.936;2023-06-05T01:31:36;4.87;;;3.33;;
15342;SDS011;7771;48.478;8.936;2023-06-05T01:34:05;3.83;;;3.07;;
15342;SDS011;7771;48.478;8.936;2023-06-05T01:36:31;5.80;;;3.40;;
15342;SDS011;7771;48.478;8.936;2023-06-05T01:38:58;6.67;;;2.50;;
15342;SDS011;7771;48.478;8.936;2023-06-05T01:41:25;4.30;;;3.30;;
15342;SDS011;7771;48.478;8.936;2023-06-05T01:43:52;3.63;;;2.90;;
15342;SDS011;7771;48.478;8.936;2023-06-05T01:46:20;4.00;;;3.00;;
15342;SDS011;7771;48.478;8.936;2023-06-05T01:48:45;4.70;;;3.20;;
15342;SDS011;7771;48.478;8.936;2023-06-05T01:51:13;3.17;;;2.77;;
15342;SDS011;7771;48.478;8.936;2023-06-05T01:53:39;3.70;;;2.67;;
15342;SDS011;7771;48.478;8.936;2023-06-05T01:56:08;4.47;;;3.43;;
15342;SDS011;7771;48.478;8.936;2023-06-05T01:58:34;4.90;;;2.93;;
15342;SDS011;7771;48.478;8.936;2023-06-05T02:01:01;5.13;;;2.77;;
15342;SDS011;7771;48.478;8.936;2023-06-05T02:03:28;4.33;;;2.80;;
15342;SDS011;7771;48.478;8.936;2023-06-05T02:05:56;3.77;;;2.87;;
15342;SDS011;7771;48.478;8.936;2023-06-05T02:08:24;5.40;;;3.20;;
15342;SDS011;7771;48.478;8.936;2023-06-05T02:10:52;4.13;;;2.80;;
15342;SDS011;7771;48.478;8.936;2023-06-05T02:13:20;4.87;;;2.97;;
15342;SDS011;7771;48.478;8.936;2023-06-05T02:15:46;4.87;;;3.07;;
15342;SDS011;7771;48.478;8.936;2023-06-05T02:18:14;3.80;;;3.27;;
15342;SDS011;7771;48.478;8.936;2023-06-05T02:20:41;8.27;;;3.40;;
15342;SDS011;7771;48.478;8.936;2023-06-05T02:23:09;4.23;;;3.27;;
15342;SDS011;7771;48.478;8.936;2023-06-05T02:25:37;5.63;;;3.00;;
15342;SDS011;7771;48.478;8.936;2023-06-05T02:28:04;5.27;;;3.07;;
15342;SDS011;7771;48.478;8.936;2023-06-05T02:30:31;5.80;;;3.00;;
15342;SDS011;7771;48.478;8.936;2023-06-05T02:32:58;4.67;;;3.60;;
15342;SDS011;7771;48.478;8.936;2023-06-05T02:35:25;4.07;;;2.67;;
15342;SDS011;7771;48.478;8.936;2023-06-05T02:37:52;5.10;;;3.40;;
15342;SDS011;7771;48.478;8.936;2023-06-05T02:40:19;3.67;;;3.17;;
15342;SDS011;7771;48.478;8.936;2023-06-05T02:42:45;5.70;;;3.03;;
15342;SDS011;7771;48.478;8.936;2023-06-05T02:47:59;4.17;;;3.40;;
15342;SDS011;7771;48.478;8.936;2023-06-05T02:50:27;3.03;;;2.60;;
15342;SDS011;7771;48.478;8.936;2023-06-05T02:52:54;5.13;;;3.33;;
15342;SDS011;7771;48.478;8.936;2023-06-05T02:55:22;4.17;;;3.23;;
15342;SDS011;7771;48.478;8.936;2023-06-05T02:57:49;5.03;;;3.40;;
15342;SDS011;7771;48.478;8.936;2023-06-05T03:00:17;4.70;;;2.70;;
15342;SDS011;7771;48.478;8.936;2023-06-05T03:02:44;3.97;;;3.20;;
15342;SDS011;7771;48.478;8.936;2023-06-05T03:05:12;4.53;;;3.23;;
15342;SDS011;7771;48.478;8.936;2023-06-05T03:07:38;5.00;;;3.00;;
15342;SDS011;7771;48.478;8.936;2023-06-05T03:10:06;3.57;;;3.00;;
15342;SDS011;7771;48.478;8.936;2023-06-05T03:12:34;4.03;;;3.10;;
15342;SDS011;7771;48.478;8.936;2023-06-05T03:15:02;5.33;;;3.47;;
15342;SDS011;7771;48.478;8.936;2023-06-05T03:17:29;6.40;;;3.43;;
15342;SDS011;7771;48.478;8.936;2023-06-05T03:19:56;5.73;;;3.07;;
15342;SDS011;7771;48.478;8.936;2023-06-05T03:22:23;4.47;;;3.27;;
15342;SDS011;7771;48.478;8.936;2023-06-05T03:24:49;4.20;;;3.00;;
15342;SDS011;7771;48.478;8.936;2023-06-05T03:27:17;9.17;;;4.27;;
15342;SDS011;7771;48.478;8.936;2023-06-05T03:29:45;4.63;;;3.13;;
15342;SDS011;7771;48.478;8.936;2023-06-05T03:32:13;4.83;;;3.50;;
15342;SDS011;7771;48.478;8.936;2023-06-05T03:34:39;3.70;;;3.20;;
15342;SDS011;7771;48.478;8.936;2023-06-05T03:37:07;4.23;;;3.53;;
15342;SDS011;7771;48.478;8.936;2023-06-05T03:39:35;4.33;;;3.40;;
15342;SDS011;7771;48.478;8.936;2023-06-05T03:42:01;6.60;;;3.63;;
15342;SDS011;7771;48.478;8.936;2023-06-05T03:44:30;3.90;;;3.07;;
15342;SDS011;7771;48.478;8.936;2023-06-05T03:46:57;5.77;;;3.37;;
15342;SDS011;7771;48.478;8.936;2023-06-05T03:49:24;3.80;;;2.93;;
15342;SDS011;7771;48.478;8.936;2023-06-05T03:51:52;4.37;;;3.50;;
15342;SDS011;7771;48.478;8.936;2023-06-05T03:54:19;8.20;;;3.30;;
15342;SDS011;7771;48.478;8.936;2023-06-05T03:56:46;6.47;;;3.40;;
15342;SDS011;7771;48.478;8.936;2023-06-05T03:59:13;6.37;;;3.47;;
15342;SDS011;7771;48.478;8.936;2023-06-05T04:01:44;3.87;;;3.13;;
15342;SDS011;7771;48.478;8.936;2023-06-05T04:04:11;5.57;;;3.33;;
15342;SDS011;7771;48.478;8.936;2023-06-05T04:06:38;3.90;;;3.27;;
15342;SDS011;7771;48.478;8.936;2023-06-05T04:09:04;7.43;;;3.67;;
15342;SDS011;7771;48.478;8.936;2023-06-05T04:11:33;6.73;;;3.87;;
15342;SDS011;7771;48.478;8.936;2023-06-05T04:14:00;8.23;;;3.73;;
15342;SDS011;7771;48.478;8.936;2023-06-05T04:16:27;5.60;;;3.87;;
15342;SDS011;7771;48.478;8.936;2023-06-05T04:18:54;5.83;;;3.80;;
15342;SDS011;7771;48.478;8.936;2023-06-05T04:21:23;5.03;;;3.90;;
15342;SDS011;7771;48.478;8.936;2023-06-05T04:23:50;6.53;;;3.90;;
15342;SDS011;7771;48.478;8.936;2023-06-05T04:26:17;4.43;;;3.60;;
15342;SDS011;7771;48.478;8.936;2023-06-05T04:28:45;5.30;;;3.47;;
15342;SDS011;7771;48.478;8.936;2023-06-05T04:31:12;7.67;;;4.37;;
15342;SDS011;7771;48.478;8.936;2023-06-05T04:33:39;8.23;;;4.40;;
15342;SDS011;7771;48.478;8.936;2023-06-05T04:36:06;6.07;;;3.70;;
15342;SDS011;7771;48.478;8.936;2023-06-05T04:38:33;4.90;;;3.70;;
15342;SDS011;7771;48.478;8.936;2023-06-05T04:41:01;6.10;;;4.13;;
15342;SDS011;7771;48.478;8.936;2023-06-05T04:43:28;10.20;;;5.77;;
15342;SDS011;7771;48.478;8.936;2023-06-05T04:45:54;7.70;;;4.77;;
15342;SDS011;7771;48.478;8.936;2023-06-05T04:48:22;4.07;;;3.67;;
15342;SDS011;7771;48.478;8.936;2023-06-05T04:50:49;4.40;;;3.83;;
15342;SDS011;7771;48.478;8.936;2023-06-05T04:53:17;5.63;;;3.70;;
15342;SDS011;7771;48.478;8.936;2023-06-05T04:55:44;6.23;;;4.20;;
15342;SDS011;7771;48.478;8.936;2023-06-05T04:58:12;5.27;;;3.97;;
15342;SDS011;7771;48.478;8.936;2023-06-05T05:00:39;5.77;;;4.80;;
15342;SDS011;7771;48.478;8.936;2023-06-05T05:03:06;6.83;;;4.33;;
15342;SDS011;7771;48.478;8.936;2023-06-05T05:05:33;4.83;;;4.30;;
15342;SDS011;7771;48.478;8.936;2023-06-05T05:07:59;5.43;;;4.40;;
15342;SDS011;7771;48.478;8.936;2023-06-05T05:10:27;5.07;;;4.33;;
15342;SDS011;7771;48.478;8.936;2023-06-05T05:12:54;6.90;;;5.30;;
15342;SDS011;7771;48.478;8.936;2023-06-05T05:15:21;6.10;;;4.40;;
15342;SDS011;7771;48.478;8.936;2023-06-05T05:17:49;5.83;;;4.27;;
15342;SDS011;7771;48.478;8.936;2023-06-05T05:20:18;4.97;;;4.30;;
15342;SDS011;7771;48.478;8.936;2023-06-05T05:22:45;7.93;;;5.80;;
15342;SDS011;7771;48.478;8.936;2023-06-05T05:25:11;6.73;;;5.40;;
15342;SDS011;7771;48.478;8.936;2023-06-05T05:27:38;6.47;;;5.20;;
15342;SDS011;7771;48.478;8.936;2023-06-05T05:30:06;5.97;;;4.60;;
15342;SDS011;7771;48.478;8.936;2023-06-05T05:32:34;8.63;;;5.80;;
15342;SDS011;7771;48.478;8.936;2023-06-05T05:35:01;5.07;;;4.57;;
15342;SDS011;7771;48.478;8.936;2023-06-05T05:37:28;6.33;;;4.80;;
15342;SDS011;7771;48.478;8.936;2023-06-05T05:39:55;5.13;;;3.93;;
15342;SDS011;7771;48.478;8.936;2023-06-05T05:42:22;5.37;;;4.10;;
15342;SDS011;7771;48.478;8.936;2023-06-05T05:44:50;4.60;;;3.60;;
15342;SDS011;7771;48.478;8.936;2023-06-05T05:47:16;5.33;;;4.13;;
15342;SDS011;7771;48.478;8.936;2023-06-05T05:49:44;4.33;;;3.50;;
15342;SDS011;7771;48.478;8.936;2023-06-05T05:52:10;6.50;;;4.20;;
15342;SDS011;7771;48.478;8.936;2023-06-05T05:54:38;4.67;;;3.80;;
15342;SDS011;7771;48.478;8.936;2023-06-05T05:57:06;5.77;;;4.13;;
15342;SDS011;7771;48.478;8.936;2023-06-05T05:59:34;6.30;;;3.77;;
15342;SDS011;7771;48.478;8.936;2023-06-05T06:02:01;5.93;;;4.00;;
15342;SDS011;7771;48.478;8.936;2023-06-05T06:04:29;4.97;;;4.03;;
15342;SDS011;7771;48.478;8.936;2023-06-05T06:06:55;7.27;;;4.57;;
15342;SDS011;7771;48.478;8.936;2023-06-05T06:09:23;4.10;;;3.70;;
15342;SDS011;7771;48.478;8.936;2023-06-05T06:11:50;5.03;;;3.80;;
15342;SDS011;7771;48.478;8.936;2023-06-05T06:14:17;7.60;;;4.87;;
15342;SDS011;7771;48.478;8.936;2023-06-05T06:16:45;6.73;;;4.03;;
15342;SDS011;7771;48.478;8.936;2023-06-05T06:19:12;5.00;;;3.30;;
15342;SDS011;7771;48.478;8.936;2023-06-05T06:21:41;4.63;;;3.87;;
15342;SDS011;7771;48.478;8.936;2023-06-05T06:24:08;5.30;;;3.60;;
15342;SDS011;7771;48.478;8.936;2023-06-05T06:26:36;4.63;;;3.90;;
15342;SDS011;7771;48.478;8.936;2023-06-05T06:29:03;4.93;;;3.60;;
15342;SDS011;7771;48.478;8.936;2023-06-05T06:31:30;4.23;;;3.50;;
15342;SDS011;7771;48.478;8.936;2023-06-05T06:33:56;5.43;;;3.97;;
15342;SDS011;7771;48.478;8.936;2023-06-05T06:36:24;4.87;;;3.93;;
15342;SDS011;7771;48.478;8.936;2023-06-05T06:38:50;4.23;;;3.20;;
15342;SDS011;7771;48.478;8.936;2023-06-05T06:41:18;7.87;;;3.22;;
15342;SDS011;7771;48.478;8.936;2023-06-05T06:43:44;6.75;;;3.70;;
15342;SDS011;7771;48.478;8.936;2023-06-05T06:46:11;5.87;;;3.33;;
15342;SDS011;7771;48.478;8.936;2023-06-05T06:48:38;6.10;;;3.72;;
15342;SDS011;7771;48.478;8.936;2023-06-05T06:51:05;4.93;;;3.92;;
15342;SDS011;7771;48.478;8.936;2023-06-05T06:53:32;5.75;;;3.97;;
15342;SDS011;7771;48.478;8.936;2023-06-05T06:56:00;6.45;;;3.35;;
15342;SDS011;7771;48.478;8.936;2023-06-05T06:58:26;4.32;;;3.33;;
15342;SDS011;7771;48.478;8.936;2023-06-05T07:00:53;4.10;;;3.30;;
15342;SDS011;7771;48.478;8.936;2023-06-05T07:03:20;3.47;;;3.12;;
15342;SDS011;7771;48.478;8.936;2023-06-05T07:05:47;3.53;;;3.00;;
15342;SDS011;7771;48.478;8.936;2023-06-05T07:08:13;3.97;;;3.40;;
15342;SDS011;7771;48.478;8.936;2023-06-05T07:10:41;5.45;;;2.90;;
15342;SDS011;7771;48.478;8.936;2023-06-05T07:13:07;5.18;;;2.90;;
15342;SDS011;7771;48.478;8.936;2023-06-05T07:15:34;5.32;;;3.67;;
15342;SDS011;7771;48.478;8.936;2023-06-05T07:18:02;4.40;;;3.70;;
15342;SDS011;7771;48.478;8.936;2023-06-05T07:20:30;4.35;;;3.37;;
15342;SDS011;7771;48.478;8.936;2023-06-05T07:22:57;4.87;;;4.40;;
15342;SDS011;7771;48.478;8.936;2023-06-05T07:25:26;3.83;;;3.53;;
15342;SDS011;7771;48.478;8.936;2023-06-05T07:27:53;3.37;;;3.08;;
15342;SDS011;7771;48.478;8.936;2023-06-05T07:30:20;7.47;;;3.60;;
15342;SDS011;7771;48.478;8.936;2023-06-05T07:32:47;5.53;;;3.33;;
15342;SDS011;7771;48.478;8.936;2023-06-05T07:35:14;4.70;;;3.67;;
15342;SDS011;7771;48.478;8.936;2023-06-05T07:37:40;5.90;;;3.15;;
15342;SDS011;7771;48.478;8.936;2023-06-05T07:40:07;5.30;;;3.55;;
15342;SDS011;7771;48.478;8.936;2023-06-05T07:42:35;4.65;;;4.15;;
15342;SDS011;7771;48.478;8.936;2023-06-05T07:45:02;4.28;;;3.45;;
15342;SDS011;7771;48.478;8.936;2023-06-05T07:47:29;3.67;;;3.20;;
15342;SDS011;7771;48.478;8.936;2023-06-05T07:49:56;4.10;;;3.70;;
15342;SDS011;7771;48.478;8.936;2023-06-05T07:52:23;4.20;;;3.80;;
15342;SDS011;7771;48.478;8.936;2023-06-05T07:54:51;4.50;;;3.30;;
15342;SDS011;7771;48.478;8.936;2023-06-05T07:57:17;3.90;;;3.60;;
15342;SDS011;7771;48.478;8.936;2023-06-05T07:59:44;3.33;;;3.03;;
15342;SDS011;7771;48.478;8.936;2023-06-05T08:02:11;3.42;;;3.12;;
15342;SDS011;7771;48.478;8.936;2023-06-05T08:04:37;4.75;;;3.35;;
15342;SDS011;7771;48.478;8.936;2023-06-05T08:07:04;4.05;;;3.05;;
15342;SDS011;7771;48.478;8.936;2023-06-05T08:09:31;4.62;;;3.28;;
15342;SDS011;7771;48.478;8.936;2023-06-05T08:11:57;3.55;;;3.25;;
15342;SDS011;7771;48.478;8.936;2023-06-05T08:14:24;3.55;;;3.25;;
15342;SDS011;7771;48.478;8.936;2023-06-05T08:16:51;4.32;;;3.60;;
15342;SDS011;7771;48.478;8.936;2023-06-05T08:19:17;4.03;;;3.10;;
15342;SDS011;7771;48.478;8.936;2023-06-05T08:21:45;4.75;;;3.30;;
15342;SDS011;7771;48.478;8.936;2023-06-05T08:24:12;3.75;;;3.40;;
15342;SDS011;7771;48.478;8.936;2023-06-05T08:26:40;5.75;;;3.40;;
15342;SDS011;7771;48.478;8.936;2023-06-05T08:29:08;4.93;;;4.00;;
15342;SDS011;7771;48.478;8.936;2023-06-05T08:31:34;6.90;;;3.80;;
15342;SDS011;7771;48.478;8.936;2023-06-05T08:34:06;6.85;;;3.60;;
15342;SDS011;7771;48.478;8.936;2023-06-05T08:36:32;3.90;;;3.50;;
15342;SDS011;7771;48.478;8.936;2023-06-05T08:38:59;6.20;;;3.40;;
15342;SDS011;7771;48.478;8.936;2023-06-05T08:41:29;5.00;;;3.90;;
15342;SDS011;7771;48.478;8.936;2023-06-05T08:43:55;4.03;;;3.55;;
15342;SDS011;7771;48.478;8.936;2023-06-05T08:46:23;4.22;;;3.62;;
15342;SDS011;7771;48.478;8.936;2023-06-05T08:48:49;4.50;;;4.05;;
15342;SDS011;7771;48.478;8.936;2023-06-05T08:51:17;5.35;;;3.80;;
15342;SDS011;7771;48.478;8.936;2023-06-05T08:53:47;5.62;;;4.62;;
15342;SDS011;7771;48.478;8.936;2023-06-05T08:56:15;5.22;;;4.03;;
15342;SDS011;7771;48.478;8.936;2023-06-05T08:58:44;6.43;;;4.00;;
15342;SDS011;7771;48.478;8.936;2023-06-05T09:01:10;6.93;;;4.40;;
15342;SDS011;7771;48.478;8.936;2023-06-05T09:03:37;6.82;;;4.57;;
15342;SDS011;7771;48.478;8.936;2023-06-05T09:06:04;5.97;;;4.12;;
15342;SDS011;7771;48.478;8.936;2023-06-05T09:08:31;4.62;;;4.00;;
15342;SDS011;7771;48.478;8.936;2023-06-05T09:11:33;4.80;;;4.28;;
15342;SDS011;7771;48.478;8.936;2023-06-05T09:14:01;6.03;;;4.05;;
15342;SDS011;7771;48.478;8.936;2023-06-05T09:16:34;6.28;;;4.10;;
15342;SDS011;7771;48.478;8.936;2023-06-05T09:19:01;5.15;;;4.03;;
15342;SDS011;7771;48.478;8.936;2023-06-05T09:21:28;3.65;;;3.22;;
15342;SDS011;7771;48.478;8.936;2023-06-05T09:29:28;6.75;;;4.30;;
15342;SDS011;7771;48.478;8.936;2023-06-05T09:31:55;5.12;;;3.70;;
15342;SDS011;7771;48.478;8.936;2023-06-05T09:34:21;6.40;;;3.92;;
15342;SDS011;7771;48.478;8.936;2023-06-05T09:36:47;4.65;;;4.15;;
15342;SDS011;7771;48.478;8.936;2023-06-05T09:39:14;5.60;;;4.07;;
15342;SDS011;7771;48.478;8.936;2023-06-05T09:41:42;5.53;;;3.92;;
15342;SDS011;7771;48.478;8.936;2023-06-05T09:44:10;6.22;;;4.40;;
15342;SDS011;7771;48.478;8.936;2023-06-05T09:46:49;10.15;;;4.18;;
15342;SDS011;7771;48.478;8.936;2023-06-05T09:49:26;6.10;;;4.30;;
15342;SDS011;7771;48.478;8.936;2023-06-05T09:51:54;6.15;;;4.72;;
15342;SDS011;7771;48.478;8.936;2023-06-05T09:54:20;7.70;;;4.68;;
15342;SDS011;7771;48.478;8.936;2023-06-05T09:56:48;5.32;;;4.15;;
15342;SDS011;7771;48.478;8.936;2023-06-05T09:59:18;7.87;;;4.78;;
15342;SDS011;7771;48.478;8.936;2023-06-05T10:01:44;5.25;;;4.70;;
15342;SDS011;7771;48.478;8.936;2023-06-05T10:04:12;4.87;;;4.37;;
15342;SDS011;7771;48.478;8.936;2023-06-05T10:06:38;4.95;;;4.50;;
15342;SDS011;7771;48.478;8.936;2023-06-05T10:09:06;4.80;;;4.12;;
15342;SDS011;7771;48.478;8.936;2023-06-05T10:11:32;5.53;;;4.90;;
15342;SDS011;7771;48.478;8.936;2023-06-05T10:14:00;9.02;;;4.97;;
15342;SDS011;7771;48.478;8.936;2023-06-05T10:16:27;7.07;;;4.82;;
15342;SDS011;7771;48.478;8.936;2023-06-05T10:18:55;6.05;;;4.70;;
15342;SDS011;7771;48.478;8.936;2023-06-05T10:21:23;6.70;;;5.15;;
15342;SDS011;7771;48.478;8.936;2023-06-05T10:23:52;7.80;;;4.72;;
15342;SDS011;7771;48.478;8.936;2023-06-05T10:26:32;5.57;;;4.30;;
15342;SDS011;7771;48.478;8.936;2023-06-05T10:29:01;6.37;;;4.43;;
15342;SDS011;7771;48.478;8.936;2023-06-05T10:31:34;7.00;;;4.47;;
15342;SDS011;7771;48.478;8.936;2023-06-05T10:34:06;5.60;;;4.93;;
15342;SDS011;7771;48.478;8.936;2023-06-05T10:36:49;4.35;;;3.95;;
15342;SDS011;7771;48.478;8.936;2023-06-05T10:39:15;6.20;;;4.20;;
15342;SDS011;7771;48.478;8.936;2023-06-05T10:41:42;5.15;;;4.65;;
15342;SDS011;7771;48.478;8.936;2023-06-05T10:44:09;5.70;;;4.10;;
15342;SDS011;7771;48.478;8.936;2023-06-05T10:46:36;5.45;;;4.00;;
15342;SDS011;7771;48.478;8.936;2023-06-05T10:49:05;4.20;;;3.55;;
15342;SDS011;7771;48.478;8.936;2023-06-05T10:51:32;7.25;;;3.83;;
15342;SDS011;7771;48.478;8.936;2023-06-05T10:54:06;4.40;;;4.00;;
15342;SDS011;7771;48.478;8.936;2023-06-05T10:59:32;4.25;;;3.83;;
15342;SDS011;7771;48.478;8.936;2023-06-05T11:02:30;5.18;;;3.60;;
15342;SDS011;7771;48.478;8.936;2023-06-05T11:07:31;5.25;;;4.75;;
15342;SDS011;7771;48.478;8.936;2023-06-05T11:10:05;5.72;;;3.97;;
15342;SDS011;7771;48.478;8.936;2023-06-05T11:15:38;4.55;;;3.72;;
15342;SDS011;7771;48.478;8.936;2023-06-05T11:20:53;5.85;;;4.97;;
15342;SDS011;7771;48.478;8.936;2023-06-05T11:23:20;4.57;;;3.95;;
15342;SDS011;7771;48.478;8.936;2023-06-05T11:25:48;4.62;;;3.83;;
15342;SDS011;7771;48.478;8.936;2023-06-05T11:28:16;5.82;;;4.53;;
15342;SDS011;7771;48.478;8.936;2023-06-05T11:30:44;4.53;;;4.12;;
15342;SDS011;7771;48.478;8.936;2023-06-05T11:33:12;4.80;;;4.15;;
15342;SDS011;7771;48.478;8.936;2023-06-05T11:35:42;4.45;;;3.83;;
15342;SDS011;7771;48.478;8.936;2023-06-05T11:38:10;7.07;;;4.60;;
15342;SDS011;7771;48.478;8.936;2023-06-05T11:40:37;4.55;;;4.15;;
15342;SDS011;7771;48.478;8.936;2023-06-05T11:43:06;5.80;;;4.07;;
15342;SDS011;7771;48.478;8.936;2023-06-05T11:45:34;5.28;;;4.65;;
15342;SDS011;7771;48.478;8.936;2023-06-05T11:48:03;6.25;;;4.37;;
15342;SDS011;7771;48.478;8.936;2023-06-05T11:50:30;5.82;;;3.75;;
15342;SDS011;7771;48.478;8.936;2023-06-05T11:53:03;4.68;;;4.18;;
15342;SDS011;7771;48.478;8.936;2023-06-05T11:55:32;6.25;;;3.92;;
15342;SDS011;7771;48.478;8.936;2023-06-05T11:58:00;5.43;;;4.12;;
15342;SDS011;7771;48.478;8.936;2023-06-05T12:00:27;4.75;;;4.25;;
15342;SDS011;7771;48.478;8.936;2023-06-05T12:02:54;4.53;;;4.03;;
15342;SDS011;7771;48.478;8.936;2023-06-05T12:05:22;4.45;;;4.03;;
15342;SDS011;7771;48.478;8.936;2023-06-05T12:07:48;5.45;;;3.85;;
15342;SDS011;7771;48.478;8.936;2023-06-05T12:10:16;6.80;;;4.18;;
15342;SDS011;7771;48.478;8.936;2023-06-05T12:12:50;5.82;;;4.60;;
15342;SDS011;7771;48.478;8.936;2023-06-05T12:15:17;4.85;;;3.80;;
15342;SDS011;7771;48.478;8.936;2023-06-05T12:17:50;4.35;;;3.90;;
15342;SDS011;7771;48.478;8.936;2023-06-05T12:20:17;5.97;;;4.30;;
15342;SDS011;7771;48.478;8.936;2023-06-05T12:22:44;7.05;;;3.95;;
15342;SDS011;7771;48.478;8.936;2023-06-05T12:25:17;4.85;;;4.20;;
15342;SDS011;7771;48.478;8.936;2023-06-05T12:27:44;3.80;;;3.50;;
15342;SDS011;7771;48.478;8.936;2023-06-05T12:30:12;7.40;;;4.12;;
15342;SDS011;7771;48.478;8.936;2023-06-05T12:32:39;3.97;;;3.58;;
15342;SDS011;7771;48.478;8.936;2023-06-05T12:35:17;5.53;;;4.57;;
15342;SDS011;7771;48.478;8.936;2023-06-05T12:37:34;4.93;;;4.25;;
15342;SDS011;7771;48.478;8.936;2023-06-05T12:40:01;7.57;;;4.00;;
15342;SDS011;7771;48.478;8.936;2023-06-05T12:42:28;4.65;;;4.22;;
15342;SDS011;7771;48.478;8.936;2023-06-05T12:44:54;6.22;;;4.15;;
15342;SDS011;7771;48.478;8.936;2023-06-05T12:47:21;5.10;;;4.43;;
15342;SDS011;7771;48.478;8.936;2023-06-05T12:49:48;5.30;;;4.22;;
15342;SDS011;7771;48.478;8.936;2023-06-05T12:52:17;4.68;;;4.25;;
15342;SDS011;7771;48.478;8.936;2023-06-05T12:54:44;5.00;;;4.55;;
15342;SDS011;7771;48.478;8.936;2023-06-05T12:57:11;6.68;;;4.10;;
15342;SDS011;7771;48.478;8.936;2023-06-05T12:59:40;6.75;;;4.75;;
15342;SDS011;7771;48.478;8.936;2023-06-05T13:02:08;6.10;;;4.30;;
15342;SDS011;7771;48.478;8.936;2023-06-05T13:04:35;5.18;;;4.57;;
15342;SDS011;7771;48.478;8.936;2023-06-05T13:07:03;5.28;;;4.80;;
15342;SDS011;7771;48.478;8.936;2023-06-05T13:09:34;5.85;;;4.82;;
15342;SDS011;7771;48.478;8.936;2023-06-05T13:12:01;6.47;;;4.40;;
15342;SDS011;7771;48.478;8.936;2023-06-05T13:14:29;5.55;;;4.28;;
15342;SDS011;7771;48.478;8.936;2023-06-05T13:16:57;4.35;;;3.95;;
15342;SDS011;7771;48.478;8.936;2023-06-05T13:19:23;5.15;;;4.20;;
15342;SDS011;7771;48.478;8.936;2023-06-05T13:21:50;4.68;;;3.67;;
15342;SDS011;7771;48.478;8.936;2023-06-05T13:24:17;5.20;;;4.15;;
15342;SDS011;7771;48.478;8.936;2023-06-05T13:26:44;5.62;;;4.18;;
15342;SDS011;7771;48.478;8.936;2023-06-05T13:29:12;6.60;;;4.03;;
15342;SDS011;7771;48.478;8.936;2023-06-05T13:31:39;4.93;;;4.40;;
15342;SDS011;7771;48.478;8.936;2023-06-05T13:34:07;4.40;;;4.00;;
15342;SDS011;7771;48.478;8.936;2023-06-05T13:36:34;6.45;;;4.30;;
15342;SDS011;7771;48.478;8.936;2023-06-05T13:39:01;4.25;;;3.85;;
15342;SDS011;7771;48.478;8.936;2023-06-05T13:41:28;10.70;;;4.40;;
15342;SDS011;7771;48.478;8.936;2023-06-05T13:43:54;6.15;;;4.80;;
15342;SDS011;7771;48.478;8.936;2023-06-05T13:46:22;6.18;;;4.32;;
15342;SDS011;7771;48.478;8.936;2023-06-05T13:48:48;6.82;;;4.70;;
15342;SDS011;7771;48.478;8.936;2023-06-05T13:51:15;5.37;;;4.47;;
15342;SDS011;7771;48.478;8.936;2023-06-05T13:53:42;5.18;;;4.68;;
15342;SDS011;7771;48.478;8.936;2023-06-05T13:56:10;5.03;;;3.90;;
15342;SDS011;7771;48.478;8.936;2023-06-05T13:58:37;4.47;;;4.07;;
15342;SDS011;7771;48.478;8.936;2023-06-05T14:01:03;5.15;;;4.07;;
15342;SDS011;7771;48.478;8.936;2023-06-05T14:03:31;7.45;;;4.20;;
15342;SDS011;7771;48.478;8.936;2023-06-05T14:05:57;5.32;;;3.58;;
15342;SDS011;7771;48.478;8.936;2023-06-05T14:08:24;6.22;;;3.95;;
15342;SDS011;7771;48.478;8.936;2023-06-05T14:10:51;4.45;;;4.05;;
15342;SDS011;7771;48.478;8.936;2023-06-05T14:13:17;4.57;;;3.72;;
15342;SDS011;7771;48.478;8.936;2023-06-05T14:15:45;3.33;;;2.90;;
15342;SDS011;7771;48.478;8.936;2023-06-05T14:18:12;4.60;;;3.80;;
15342;SDS011;7771;48.478;8.936;2023-06-05T14:20:39;4.53;;;3.50;;
15342;SDS011;7771;48.478;8.936;2023-06-05T14:23:06;6.25;;;3.55;;
15342;SDS011;7771;48.478;8.936;2023-06-05T14:25:33;5.78;;;3.65;;
15342;SDS011;7771;48.478;8.936;2023-06-05T14:28:00;4.85;;;3.40;;
15342;SDS011;7771;48.478;8.936;2023-06-05T14:30:26;4.10;;;3.70;;
15342;SDS011;7771;48.478;8.936;2023-06-05T14:32:54;5.68;;;3.83;;
15342;SDS011;7771;48.478;8.936;2023-06-05T14:35:20;3.80;;;3.50;;
15342;SDS011;7771;48.478;8.936;2023-06-05T14:37:49;5.03;;;3.47;;
15342;SDS011;7771;48.478;8.936;2023-06-05T14:40:15;3.62;;;3.03;;
15342;SDS011;7771;48.478;8.936;2023-06-05T14:42:42;4.75;;;3.40;;
15342;SDS011;7771;48.478;8.936;2023-06-05T14:45:10;3.55;;;3.08;;
15342;SDS011;7771;48.478;8.936;2023-06-05T14:47:37;6.68;;;3.50;;
15342;SDS011;7771;48.478;8.936;2023-06-05T14:50:06;4.60;;;3.62;;
15342;SDS011;7771;48.478;8.936;2023-06-05T14:52:33;4.18;;;3.37;;
15342;SDS011;7771;48.478;8.936;2023-06-05T14:54:59;4.68;;;3.70;;
15342;SDS011;7771;48.478;8.936;2023-06-05T14:57:26;4.28;;;3.42;;
15342;SDS011;7771;48.478;8.936;2023-06-05T14:59:53;6.43;;;3.83;;
15342;SDS011;7771;48.478;8.936;2023-06-05T15:02:21;5.40;;;3.92;;
15342;SDS011;7771;48.478;8.936;2023-06-05T15:04:48;12.20;;;3.92;;
15342;SDS011;7771;48.478;8.936;2023-06-05T15:07:19;5.28;;;3.75;;
15342;SDS011;7771;48.478;8.936;2023-06-05T15:09:45;5.45;;;3.90;;
15342;SDS011;7771;48.478;8.936;2023-06-05T15:12:12;4.87;;;4.20;;
15342;SDS011;7771;48.478;8.936;2023-06-05T15:14:39;4.20;;;3.72;;
15342;SDS011;7771;48.478;8.936;2023-06-05T15:17:06;6.15;;;5.07;;
15342;SDS011;7771;48.478;8.936;2023-06-05T15:19:34;4.43;;;3.90;;
15342;SDS011;7771;48.478;8.936;2023-06-05T15:22:02;5.97;;;4.12;;
15342;SDS011;7771;48.478;8.936;2023-06-05T15:24:28;6.45;;;3.60;;